Time;durP1;ratioP1;P1;durP2;ratioP2;P2;SDS_P1;SDS_P2;PMS_P1;PMS_P2;Temp;Humidity;BMP_temperature;BMP_pressure;BME280_temperature;BME280_humidity;BME280_pressure;Samples;Min_cycle;Max_cycle;Signal;HPM_P1;HPM_P2
2023/06/16 00:01:59;;;;;;;4.70;3.70;;;16.40;99.90;;;;;;5048710;28;20048;-50
2023/06/16 00:04:27;;;;;;;6.03;3.55;;;16.30;99.90;;;;;;5046643;28;20045;-51
2023/06/16 00:06:58;;;;;;;7.82;3.80;;;16.30;99.90;;;;;;5049458;28;20048;-54
2023/06/16 00:09:25;;;;;;;4.63;3.78;;;16.20;99.90;;;;;;5047972;28;20073;-52
2023/06/16 00:11:55;;;;;;;5.03;4.10;;;16.20;99.90;;;;;;5029523;28;20053;-52
2023/06/16 00:14:20;;;;;;;4.68;4.13;;;16.10;99.90;;;;;;5037331;28;20060;-53
2023/06/16 00:16:48;;;;;;;5.07;4.05;;;16.10;99.90;;;;;;5045168;28;20041;-53
2023/06/16 00:19:15;;;;;;;7.05;3.83;;;16.10;99.90;;;;;;5034959;28;20120;-51
2023/06/16 00:21:42;;;;;;;8.50;4.10;;;16.00;99.90;;;;;;5045724;28;20053;-54
2023/06/16 00:24:08;;;;;;;;;;;16.00;99.90;;;;;;5049120;28;20401;-51
2023/06/16 00:26:35;;;;;;;5.30;4.00;;;16.00;99.90;;;;;;5048773;28;19921;-51
2023/06/16 00:29:04;;;;;;;4.97;3.70;;;15.90;99.90;;;;;;5037148;28;20536;-54
2023/06/16 00:31:31;;;;;;;6.50;3.80;;;15.90;99.90;;;;;;5040202;28;20064;-51
2023/06/16 00:34:00;;;;;;;6.47;4.05;;;15.90;99.90;;;;;;5046689;28;20048;-52
2023/06/16 00:36:26;;;;;;;6.43;4.22;;;15.90;99.90;;;;;;5045983;28;20393;-52
2023/06/16 00:38:52;;;;;;;5.72;3.95;;;15.90;99.90;;;;;;5028416;28;20048;-51
2023/06/16 00:41:18;;;;;;;4.53;3.83;;;15.80;99.90;;;;;;5041652;28;20042;-52
2023/06/16 00:43:43;;;;;;;7.57;4.53;;;15.90;99.90;;;;;;5042920;28;20041;-51
2023/06/16 00:46:12;;;;;;;5.72;4.35;;;15.90;99.90;;;;;;5034774;28;20087;-53
2023/06/16 00:48:38;;;;;;;7.97;4.60;;;15.90;99.90;;;;;;5046033;28;20119;-51
2023/06/16 00:51:04;;;;;;;10.25;4.50;;;16.00;99.90;;;;;;5045936;28;20113;-51
2023/06/16 00:53:31;;;;;;;7.40;4.20;;;16.00;99.90;;;;;;5036359;28;20064;-51
2023/06/16 00:55:58;;;;;;;5.82;4.22;;;16.00;99.90;;;;;;5043802;28;20130;-53
2023/06/16 00:58:24;;;;;;;7.18;4.53;;;15.90;99.90;;;;;;5043637;28;20040;-51
2023/06/16 01:00:51;;;;;;;8.05;4.57;;;15.90;99.90;;;;;;5043053;28;20060;-55
2023/06/16 01:03:17;;;;;;;6.63;4.32;;;15.90;99.90;;;;;;5038035;28;20049;-52
2023/06/16 01:05:43;;;;;;;7.13;4.50;;;15.90;99.90;;;;;;5044386;28;20120;-53
2023/06/16 01:08:30;;;;;;;5.35;4.70;;;15.80;99.90;;;;;;5039818;28;20040;-52
2023/06/16 01:11:17;;;;;;;5.47;4.95;;;15.80;99.90;;;;;;5036324;28;20044;-51
2023/06/16 01:13:59;;;;;;;6.75;4.40;;;15.80;99.90;;;;;;5041437;28;20091;-50
2023/06/16 01:16:29;;;;;;;7.50;5.10;;;15.70;99.90;;;;;;5040438;28;20398;-51
2023/06/16 01:18:55;;;;;;;6.20;4.82;;;15.70;99.90;;;;;;5041236;28;20049;-52
2023/06/16 01:21:44;;;;;;;6.13;4.93;;;15.70;99.90;;;;;;5041708;28;20387;-55
2023/06/16 01:24:16;;;;;;;6.55;4.78;;;15.60;99.90;;;;;;5043443;28;20041;-54
2023/06/16 01:26:46;;;;;;;5.32;4.82;;;15.60;99.90;;;;;;5039953;28;20061;-55
2023/06/16 01:29:13;;;;;;;6.63;4.88;;;15.60;99.90;;;;;;5039924;28;20091;-53
2023/06/16 01:31:41;;;;;;;13.60;5.15;;;15.50;99.90;;;;;;5034425;28;20437;-51
2023/06/16 01:34:08;;;;;;;8.32;4.45;;;15.50;99.90;;;;;;5035357;28;20091;-53
2023/06/16 01:36:37;;;;;;;6.88;4.93;;;15.40;99.90;;;;;;5043552;28;20076;-51
2023/06/16 01:39:04;;;;;;;6.43;5.00;;;15.40;99.90;;;;;;5038750;28;20041;-52
2023/06/16 01:41:30;;;;;;;7.25;4.88;;;15.40;99.90;;;;;;5022317;28;20398;-52
2023/06/16 01:43:56;;;;;;;6.32;4.95;;;15.30;99.90;;;;;;5041723;28;20037;-54
2023/06/16 01:46:23;;;;;;;6.00;4.80;;;15.30;99.90;;;;;;5031072;28;20038;-52
2023/06/16 01:48:49;;;;;;;7.65;4.72;;;15.30;99.90;;;;;;5032188;28;20045;-51
2023/06/16 01:51:15;;;;;;;8.82;4.97;;;15.20;99.90;;;;;;5014786;28;20045;-52
2023/06/16 01:53:41;;;;;;;6.85;4.82;;;15.20;99.90;;;;;;5033897;28;20037;-55
2023/06/16 01:56:10;;;;;;;7.05;5.20;;;15.20;99.90;;;;;;5037658;28;20387;-50
2023/06/16 01:58:36;;;;;;;6.82;4.72;;;15.20;99.90;;;;;;5031472;28;20129;-52
2023/06/16 02:01:08;;;;;;;8.10;5.05;;;15.10;99.90;;;;;;5036314;28;20522;-52
2023/06/16 02:03:47;;;;;;;6.07;4.72;;;15.10;99.90;;;;;;5037086;28;20769;-52
2023/06/16 02:06:22;;;;;;;5.97;5.13;;;15.00;99.90;;;;;;5037045;28;20080;-51
2023/06/16 02:08:50;;;;;;;7.00;6.30;;;15.00;99.90;;;;;;5019052;28;20045;-49
2023/06/16 02:11:15;;;;;;;;;;;14.90;99.90;;;;;;5036733;28;20037;-50
2023/06/16 02:13:43;;;;;;;10.32;7.05;;;14.90;99.90;;;;;;5037266;28;20293;-50
2023/06/16 02:16:09;;;;;;;9.10;7.13;;;14.90;99.90;;;;;;5038332;28;20833;-49
2023/06/16 02:18:35;;;;;;;8.85;7.20;;;14.80;99.90;;;;;;5038297;28;20319;-54
2023/06/16 02:21:00;;;;;;;8.10;7.30;;;14.80;99.90;;;;;;5040922;28;20457;-55
2023/06/16 02:23:26;;;;;;;10.20;6.63;;;14.80;99.90;;;;;;5044637;28;20060;-49
2023/06/16 02:25:52;;;;;;;8.90;7.10;;;14.70;99.90;;;;;;5036371;28;20044;-54
2023/06/16 02:28:18;;;;;;;10.55;7.25;;;14.80;99.90;;;;;;5038603;28;20068;-50
2023/06/16 02:30:43;;;;;;;8.15;6.97;;;14.80;99.90;;;;;;5041394;28;20134;-52
2023/06/16 02:33:11;;;;;;;9.20;8.35;;;14.70;99.90;;;;;;5043432;28;20047;-53
2023/06/16 02:35:36;;;;;;;9.18;7.38;;;14.70;99.90;;;;;;5041463;28;20063;-54
2023/06/16 02:38:02;;;;;;;8.00;6.95;;;14.70;99.90;;;;;;5042949;28;20040;-53
2023/06/16 02:40:28;;;;;;;8.02;6.40;;;14.70;99.90;;;;;;5042230;28;20049;-53
2023/06/16 02:42:54;;;;;;;13.05;7.38;;;14.60;99.90;;;;;;5041034;28;20044;-51
2023/06/16 02:45:20;;;;;;;8.73;6.93;;;14.60;99.90;;;;;;5027952;28;20460;-50
2023/06/16 02:47:45;;;;;;;8.65;7.70;;;14.60;99.90;;;;;;5042117;28;20041;-53
2023/06/16 02:50:11;;;;;;;9.95;7.88;;;14.60;99.90;;;;;;5043899;28;20044;-53
2023/06/16 02:52:36;;;;;;;9.60;7.25;;;14.60;99.90;;;;;;5041419;28;20045;-51
2023/06/16 02:55:03;;;;;;;11.00;7.20;;;14.60;99.90;;;;;;5041794;28;20087;-53
2023/06/16 02:57:29;;;;;;;7.57;6.87;;;14.60;99.90;;;;;;5041905;28;20116;-56
2023/06/16 02:59:55;;;;;;;8.70;6.85;;;14.60;99.90;;;;;;5034424;28;20173;-52
2023/06/16 03:02:21;;;;;;;8.27;6.82;;;14.50;99.90;;;;;;5041377;28;20045;-55
2023/06/16 03:04:47;;;;;;;8.70;7.25;;;14.50;99.90;;;;;;5031529;28;20095;-53
2023/06/16 03:07:14;;;;;;;7.28;6.50;;;14.50;99.90;;;;;;5042504;28;20056;-54
2023/06/16 03:09:40;;;;;;;7.63;6.93;;;14.40;99.90;;;;;;5022613;28;20060;-51
2023/06/16 03:12:06;;;;;;;7.22;6.53;;;14.40;99.90;;;;;;5041883;28;20048;-54
2023/06/16 03:14:32;;;;;;;9.45;7.00;;;14.40;99.90;;;;;;5035542;28;20080;-53
2023/06/16 03:17:00;;;;;;;8.85;7.13;;;14.40;99.90;;;;;;5042623;28;20128;-54
2023/06/16 03:19:25;;;;;;;9.35;6.72;;;14.40;99.90;;;;;;5042159;28;20060;-53
2023/06/16 03:21:51;;;;;;;8.15;6.72;;;14.30;99.90;;;;;;5040723;28;20053;-52
2023/06/16 03:24:18;;;;;;;10.98;6.97;;;14.30;99.90;;;;;;5046003;28;20487;-52
2023/06/16 03:26:44;;;;;;;7.00;6.30;;;14.30;99.90;;;;;;5037420;28;20498;-50
2023/06/16 03:29:11;;;;;;;7.40;6.70;;;14.30;99.90;;;;;;5031982;28;20056;-52
2023/06/16 03:31:37;;;;;;;7.78;6.85;;;14.30;99.90;;;;;;5016977;28;20049;-53
2023/06/16 03:34:03;;;;;;;9.45;6.80;;;14.30;99.90;;;;;;5043985;28;20102;-54
2023/06/16 03:36:32;;;;;;;11.32;7.53;;;14.30;99.90;;;;;;5047535;28;20029;-52
2023/06/16 03:38:58;;;;;;;8.70;6.82;;;14.40;99.90;;;;;;5036291;28;20041;-50
2023/06/16 03:41:24;;;;;;;8.38;7.05;;;14.40;99.90;;;;;;5040910;28;20053;-52
2023/06/16 03:43:49;;;;;;;9.85;7.60;;;14.40;99.90;;;;;;5038251;28;20049;-53
2023/06/16 03:46:15;;;;;;;10.50;7.60;;;14.50;99.90;;;;;;5037011;28;20064;-54
2023/06/16 03:48:40;;;;;;;8.30;7.50;;;14.50;99.90;;;;;;5044880;28;20045;-49
2023/06/16 03:51:06;;;;;;;9.52;7.70;;;14.60;99.90;;;;;;5046267;28;20033;-50
2023/06/16 03:53:31;;;;;;;7.95;7.25;;;14.60;99.90;;;;;;5045096;28;20103;-52
2023/06/16 03:55:57;;;;;;;9.95;7.70;;;14.70;99.90;;;;;;5043425;28;20045;-54
2023/06/16 03:58:24;;;;;;;8.60;7.40;;;14.70;99.90;;;;;;5040175;28;20095;-53
2023/06/16 04:00:50;;;;;;;7.88;6.97;;;14.80;99.90;;;;;;5027874;28;20060;-51
2023/06/16 04:03:15;;;;;;;8.90;6.75;;;14.90;99.90;;;;;;5037710;28;20041;-50
2023/06/16 04:05:41;;;;;;;8.15;7.45;;;15.00;99.90;;;;;;5043866;28;20044;-52
2023/06/16 04:08:07;;;;;;;9.40;7.85;;;15.10;99.90;;;;;;5038947;28;20036;-50
2023/06/16 04:10:33;;;;;;;7.85;7.15;;;15.10;99.90;;;;;;5039504;28;20045;-54
2023/06/16 04:12:59;;;;;;;8.43;7.63;;;15.20;99.90;;;;;;5038903;28;20052;-50
2023/06/16 04:15:24;;;;;;;8.80;7.90;;;15.30;99.90;;;;;;5030973;28;20041;-51
2023/06/16 04:17:50;;;;;;;9.88;7.15;;;15.40;99.90;;;;;;5019535;28;20046;-53
2023/06/16 04:20:16;;;;;;;12.30;7.70;;;15.40;99.90;;;;;;5037613;28;20040;-54
2023/06/16 04:22:42;;;;;;;13.05;8.20;;;15.40;99.90;;;;;;5033675;28;20495;-50
2023/06/16 04:25:09;;;;;;;10.38;7.50;;;15.50;99.90;;;;;;5031434;28;20090;-51
2023/06/16 04:27:36;;;;;;;10.23;8.10;;;15.60;99.90;;;;;;5046425;28;20048;-54
2023/06/16 04:30:04;;;;;;;8.15;7.35;;;15.60;99.90;;;;;;5040255;28;20505;-51
2023/06/16 04:32:32;;;;;;;9.30;7.80;;;15.70;99.90;;;;;;5029661;28;20045;-54
2023/06/16 04:34:58;;;;;;;8.35;7.55;;;15.80;99.90;;;;;;5035506;28;20654;-54
2023/06/16 04:37:24;;;;;;;10.50;8.40;;;17.10;99.90;;;;;;5036072;28;20049;-54
2023/06/16 04:39:49;;;;;;;9.73;7.70;;;17.90;99.90;;;;;;5031301;28;20040;-53
2023/06/16 04:42:15;;;;;;;8.57;7.60;;;18.80;99.90;;;;;;5040480;28;20399;-52
2023/06/16 04:44:41;;;;;;;8.85;7.78;;;19.70;99.90;;;;;;5031871;28;20480;-53
2023/06/16 04:47:09;;;;;;;11.15;7.93;;;20.60;99.90;;;;;;5040611;28;20037;-51
2023/06/16 04:49:35;;;;;;;10.95;7.30;;;21.60;99.90;;;;;;5039723;28;20075;-51
2023/06/16 04:52:00;;;;;;;8.65;7.63;;;22.10;99.90;;;;;;5041038;28;20449;-51
2023/06/16 04:54:26;;;;;;;9.70;7.75;;;22.40;99.90;;;;;;5040971;28;20041;-54
2023/06/16 04:56:52;;;;;;;9.60;7.43;;;22.90;99.90;;;;;;5040512;28;20049;-52
2023/06/16 04:59:18;;;;;;;9.02;8.00;;;23.30;99.90;;;;;;5033185;28;20458;-51
2023/06/16 05:01:44;;;;;;;10.95;7.57;;;23.80;99.90;;;;;;5033711;28;20041;-51
2023/06/16 05:04:09;;;;;;;8.30;7.32;;;24.00;99.90;;;;;;5032402;28;20155;-53
2023/06/16 05:06:36;;;;;;;9.65;7.47;;;24.20;99.90;;;;;;5039036;28;20037;-51
2023/06/16 05:09:03;;;;;;;9.15;8.00;;;24.50;99.90;;;;;;5039304;28;20398;-51
2023/06/16 05:11:29;;;;;;;8.95;8.05;;;25.00;99.30;;;;;;5019931;28;20073;-55
2023/06/16 05:13:54;;;;;;;10.45;7.68;;;25.10;98.80;;;;;;5038783;28;20124;-51
2023/06/16 05:16:20;;;;;;;9.38;7.45;;;25.40;97.70;;;;;;5034914;28;20198;-52
2023/06/16 05:18:46;;;;;;;8.73;7.35;;;25.70;97.30;;;;;;5037854;28;20051;-52
2023/06/16 05:21:11;;;;;;;8.80;7.63;;;25.90;96.40;;;;;;5038324;28;20045;-56
2023/06/16 05:23:37;;;;;;;8.95;7.32;;;26.30;96.30;;;;;;5037727;28;20045;-56
2023/06/16 05:26:03;;;;;;;8.27;7.13;;;26.40;95.80;;;;;;5049729;28;20065;-54
2023/06/16 05:28:29;;;;;;;10.32;7.28;;;26.60;95.50;;;;;;5041222;28;20044;-54
2023/06/16 05:30:55;;;;;;;10.55;8.02;;;26.90;94.80;;;;;;5036749;28;20394;-54
2023/06/16 05:33:20;;;;;;;8.10;7.30;;;26.60;94.00;;;;;;5018032;28;20040;-52
2023/06/16 05:35:46;;;;;;;9.20;7.03;;;26.70;94.00;;;;;;5034382;28;20491;-56
2023/06/16 05:38:12;;;;;;;9.18;7.78;;;27.00;93.50;;;;;;5038991;28;20114;-57
2023/06/16 05:40:37;;;;;;;7.85;7.05;;;27.10;93.40;;;;;;5038571;28;20072;-54
2023/06/16 05:43:03;;;;;;;9.10;7.53;;;27.40;93.70;;;;;;5041982;28;20053;-52
2023/06/16 05:45:29;;;;;;;9.75;7.63;;;27.80;93.30;;;;;;5041722;28;20064;-51
2023/06/16 05:47:54;;;;;;;9.95;7.80;;;27.60;92.50;;;;;;5044547;28;20079;-51
2023/06/16 05:50:20;;;;;;;9.00;8.10;;;28.00;92.20;;;;;;5044359;28;20095;-53
2023/06/16 05:52:45;;;;;;;8.55;7.70;;;28.00;92.10;;;;;;5039015;28;20049;-51
2023/06/16 05:55:11;;;;;;;8.95;7.60;;;28.40;92.00;;;;;;5046413;28;20037;-51
2023/06/16 05:57:37;;;;;;;9.57;7.82;;;28.70;91.50;;;;;;5043900;28;20037;-51
2023/06/16 06:00:05;;;;;;;8.68;7.78;;;28.60;90.80;;;;;;5045897;28;20038;-52
2023/06/16 06:02:31;;;;;;;8.10;7.32;;;28.40;90.70;;;;;;5030752;28;20147;-51
2023/06/16 06:04:56;;;;;;;11.10;8.82;;;28.70;90.80;;;;;;5040730;28;20478;-54
2023/06/16 06:07:22;;;;;;;9.43;8.15;;;28.40;90.80;;;;;;5039308;28;20049;-56
2023/06/16 06:09:47;;;;;;;8.55;7.75;;;28.40;90.70;;;;;;5029997;28;20040;-54
2023/06/16 06:12:13;;;;;;;10.52;8.77;;;28.60;90.60;;;;;;5039229;28;20049;-55
2023/06/16 06:14:39;;;;;;;9.48;8.15;;;28.70;90.30;;;;;;5035082;28;20045;-54
2023/06/16 06:17:05;;;;;;;11.07;8.35;;;29.10;90.70;;;;;;5043342;28;20040;-51
2023/06/16 06:19:30;;;;;;;8.75;7.95;;;29.30;90.40;;;;;;5038914;28;20053;-55
2023/06/16 06:21:56;;;;;;;8.48;7.65;;;29.50;89.20;;;;;;5031214;28;20052;-53
2023/06/16 06:24:22;;;;;;;8.45;7.65;;;29.70;89.20;;;;;;5037141;28;20439;-55
2023/06/16 06:26:48;;;;;;;8.32;7.53;;;29.70;88.10;;;;;;5040261;28;20040;-53
2023/06/16 06:29:15;;;;;;;8.23;7.53;;;29.70;87.50;;;;;;5034926;28;20479;-52
2023/06/16 06:31:41;;;;;;;8.45;7.55;;;29.40;86.90;;;;;;5037926;28;20076;-55
2023/06/16 06:34:06;;;;;;;9.23;8.10;;;29.40;86.60;;;;;;5022787;28;20038;-53
2023/06/16 06:36:34;;;;;;;10.05;8.65;;;29.50;87.60;;;;;;5027388;28;20421;-52
2023/06/16 06:39:00;;;;;;;9.35;7.82;;;29.40;86.90;;;;;;5037977;28;20041;-51
2023/06/16 06:41:26;;;;;;;8.18;7.43;;;29.60;87.20;;;;;;5039679;28;20044;-53
2023/06/16 06:43:52;;;;;;;9.63;7.75;;;29.60;85.80;;;;;;5039915;28;20056;-53
2023/06/16 06:46:18;;;;;;;8.30;7.47;;;29.60;86.60;;;;;;5039424;28;20049;-51
2023/06/16 06:48:44;;;;;;;8.65;7.78;;;29.80;85.80;;;;;;5040389;28;20406;-49
2023/06/16 06:51:12;;;;;;;8.15;7.47;;;29.80;85.60;;;;;;5037548;28;20497;-55
2023/06/16 06:53:37;;;;;;;10.68;8.30;;;30.10;85.10;;;;;;5040059;28;20040;-53
2023/06/16 06:56:03;;;;;;;8.10;7.40;;;29.80;83.90;;;;;;5040717;28;20114;-49
2023/06/16 06:58:29;;;;;;;8.07;7.03;;;29.60;83.70;;;;;;5030316;28;20550;-51
2023/06/16 07:00:55;;;;;;;8.13;7.25;;;29.60;84.50;;;;;;5041032;28;20041;-54
2023/06/16 07:03:20;;;;;;;8.70;7.97;;;29.80;83.30;;;;;;5039572;28;20490;-53
2023/06/16 07:05:46;;;;;;;7.07;6.43;;;29.90;83.90;;;;;;5022378;28;20041;-54
2023/06/16 07:08:11;;;;;;;8.02;5.70;;;30.00;81.90;;;;;;5040871;28;20474;-50
2023/06/16 07:10:37;;;;;;;8.40;7.32;;;30.10;82.00;;;;;;5040633;28;20093;-54
2023/06/16 07:13:02;;;;;;;11.48;7.20;;;29.90;82.60;;;;;;5039796;28;20480;-53
2023/06/16 07:15:28;;;;;;;11.57;7.20;;;30.10;82.40;;;;;;5039071;28;20044;-56
2023/06/16 07:17:54;;;;;;;7.38;6.68;;;30.00;81.10;;;;;;5039651;28;20483;-55
2023/06/16 07:20:19;;;;;;;8.38;7.57;;;29.90;81.50;;;;;;5040120;28;20075;-56
2023/06/16 07:22:45;;;;;;;6.80;6.10;;;29.80;80.60;;;;;;5038357;28;20033;-51
2023/06/16 07:25:15;;;;;;;6.00;5.50;;;29.90;79.90;;;;;;5040849;28;20075;-54
2023/06/16 07:27:42;;;;;;;6.95;6.35;;;30.10;78.00;;;;;;5045437;28;20580;-52
2023/06/16 07:30:08;;;;;;;7.22;6.47;;;29.90;77.60;;;;;;5047282;28;20049;-55
2023/06/16 07:32:35;;;;;;;6.53;5.82;;;29.60;78.60;;;;;;5042664;28;20636;-54
2023/06/16 07:35:01;;;;;;;10.23;6.70;;;29.70;78.40;;;;;;5043833;28;20056;-53
2023/06/16 07:37:27;;;;;;;7.10;6.50;;;29.40;77.40;;;;;;5041432;28;20056;-54
2023/06/16 07:39:53;;;;;;;11.50;6.68;;;29.20;76.80;;;;;;5039546;28;20045;-55
2023/06/16 07:42:19;;;;;;;6.53;5.93;;;28.90;77.90;;;;;;5034740;28;20060;-53
2023/06/16 07:44:44;;;;;;;8.77;6.05;;;28.30;77.60;;;;;;5039555;28;20048;-56
2023/06/16 07:47:10;;;;;;;9.98;7.40;;;28.10;76.90;;;;;;5039182;28;20049;-55
2023/06/16 07:49:36;;;;;;;7.50;6.75;;;27.40;77.80;;;;;;5036171;28;20060;-55
2023/06/16 07:52:02;;;;;;;7.97;7.07;;;26.40;78.30;;;;;;5041923;28;20382;-56
2023/06/16 07:54:27;;;;;;;9.73;6.88;;;26.30;80.10;;;;;;5037336;28;20380;-56
2023/06/16 07:56:53;;;;;;;8.70;6.53;;;26.00;79.80;;;;;;5041376;28;20124;-53
2023/06/16 07:59:19;;;;;;;9.35;7.10;;;25.90;80.40;;;;;;5041935;28;20102;-52
2023/06/16 08:01:45;;;;;;;6.72;6.13;;;25.30;81.80;;;;;;5028044;28;20041;-55
2023/06/16 08:04:11;;;;;;;7.80;7.00;;;25.40;82.80;;;;;;5046640;28;20200;-55
2023/06/16 08:06:37;;;;;;;8.00;7.13;;;25.40;83.40;;;;;;5042328;28;20076;-55
2023/06/16 08:09:05;;;;;;;7.25;6.53;;;25.40;82.50;;;;;;5051689;28;20440;-51
2023/06/16 08:11:31;;;;;;;7.25;6.63;;;25.50;83.20;;;;;;5049074;28;20118;-54
2023/06/16 08:13:57;;;;;;;7.30;6.57;;;25.30;83.40;;;;;;5054570;28;20478;-56
2023/06/16 08:16:23;;;;;;;8.20;6.82;;;25.30;83.40;;;;;;5054040;28;20048;-54
2023/06/16 08:18:50;;;;;;;9.27;7.77;;;25.60;83.80;;;;;;5053498;28;20052;-53
2023/06/16 08:21:15;;;;;;;;;;;25.60;83.60;;;;;;5053462;28;20158;-56
2023/06/16 08:23:41;;;;;;;13.77;6.90;;;25.40;84.10;;;;;;5049608;28;20382;-51
2023/06/16 08:26:07;;;;;;;7.30;6.30;;;25.60;84.70;;;;;;5048655;28;20082;-54
2023/06/16 08:28:33;;;;;;;7.95;7.15;;;25.70;84.50;;;;;;5046000;28;20045;-55
2023/06/16 08:30:58;;;;;;;9.27;6.15;;;25.40;84.20;;;;;;5047141;28;20044;-50
2023/06/16 08:33:24;;;;;;;10.40;5.57;;;25.70;83.60;;;;;;5047432;28;20048;-51
2023/06/16 08:35:51;;;;;;;6.75;6.07;;;25.70;83.20;;;;;;5047301;28;20044;-52
2023/06/16 08:38:16;;;;;;;6.80;6.05;;;25.60;82.90;;;;;;5049550;28;20511;-53
2023/06/16 08:40:43;;;;;;;6.60;5.97;;;25.80;83.20;;;;;;5046231;28;20044;-52
2023/06/16 08:43:12;;;;;;;7.82;5.80;;;25.40;82.80;;;;;;5045447;28;20040;-53
2023/06/16 08:45:39;;;;;;;5.93;5.45;;;25.40;82.30;;;;;;5047088;28;20514;-54
2023/06/16 08:48:05;;;;;;;5.20;4.80;;;25.70;83.60;;;;;;5047060;28;20406;-52
2023/06/16 08:50:32;;;;;;;7.35;5.32;;;26.00;83.70;;;;;;5048269;28;20303;-51
2023/06/16 08:53:00;;;;;;;5.88;4.50;;;26.00;83.00;;;;;;5048130;28;20052;-52
2023/06/16 08:55:29;;;;;;;5.90;5.20;;;26.10;84.20;;;;;;5048938;28;20033;-54
2023/06/16 08:57:56;;;;;;;5.03;4.43;;;26.20;83.90;;;;;;5042950;28;20040;-54
2023/06/16 09:00:23;;;;;;;5.18;4.43;;;26.20;81.30;;;;;;5046062;28;20557;-54
2023/06/16 09:02:49;;;;;;;5.45;4.93;;;26.20;80.10;;;;;;5039087;28;20518;-55
2023/06/16 09:05:16;;;;;;;5.00;4.47;;;26.00;80.60;;;;;;5045901;28;20037;-55
2023/06/16 09:07:42;;;;;;;8.43;4.50;;;25.80;81.50;;;;;;5040573;28;20047;-56
2023/06/16 09:10:08;;;;;;;5.07;4.50;;;26.10;81.60;;;;;;5062123;28;20040;-55
2023/06/16 09:12:35;;;;;;;6.07;5.03;;;25.80;81.50;;;;;;5052137;28;20048;-56
2023/06/16 09:15:06;;;;;;;9.25;4.90;;;26.10;82.60;;;;;;5043365;28;20140;-52
2023/06/16 09:17:33;;;;;;;5.10;4.60;;;26.40;83.70;;;;;;5049329;28;20489;-55
2023/06/16 09:20:00;;;;;;;;;;;26.30;81.30;;;;;;5044882;28;20107;-52
2023/06/16 09:22:26;;;;;;;4.55;4.15;;;26.50;81.20;;;;;;5051590;28;20011;-56
2023/06/16 09:24:56;;;;;;;4.78;4.20;;;26.50;80.60;;;;;;5053080;28;20045;-55
2023/06/16 09:27:23;;;;;;;4.43;3.80;;;26.60;80.30;;;;;;5044952;28;20068;-54
2023/06/16 09:29:56;;;;;;;;;;;26.60;79.90;;;;;;5040593;28;20068;-53
2023/06/16 09:32:22;;;;;;;5.43;4.00;;;26.10;79.60;;;;;;5047075;28;19920;-53
2023/06/16 09:34:47;;;;;;;5.13;4.30;;;26.40;81.00;;;;;;5051240;28;20051;-55
2023/06/16 09:37:19;;;;;;;7.68;4.10;;;26.00;79.10;;;;;;5049285;28;20033;-54
2023/06/16 09:39:45;;;;;;;6.20;4.50;;;26.00;80.10;;;;;;5046688;28;20399;-54
2023/06/16 09:42:16;;;;;;;5.10;4.22;;;25.80;80.10;;;;;;5044202;28;20123;-53
2023/06/16 09:44:42;;;;;;;4.13;3.70;;;26.00;81.00;;;;;;5045639;28;20064;-53
2023/06/16 09:47:12;;;;;;;5.60;4.03;;;26.30;80.30;;;;;;5043979;28;20490;-55
2023/06/16 09:49:37;;;;;;;4.93;3.30;;;26.60;81.30;;;;;;5044447;28;20048;-54
2023/06/16 09:52:03;;;;;;;5.47;3.88;;;26.70;78.60;;;;;;5047650;28;20041;-51
2023/06/16 09:54:29;;;;;;;4.78;4.30;;;26.70;78.80;;;;;;5044784;28;20037;-53
2023/06/16 09:56:56;;;;;;;6.32;4.38;;;26.10;79.00;;;;;;5044027;28;20037;-55
2023/06/16 09:59:23;;;;;;;7.10;3.87;;;26.40;78.80;;;;;;5038832;28;20032;-55
2023/06/16 10:01:50;;;;;;;8.18;5.00;;;;;;;;;;5035400;28;20041;-53
2023/06/16 10:04:16;;;;;;;5.22;4.35;;;26.00;77.90;;;;;;5047345;28;20037;-52
2023/06/16 10:06:56;;;;;;;4.47;3.77;;;26.30;78.50;;;;;;5045193;28;20036;-53
2023/06/16 10:09:27;;;;;;;4.35;3.95;;;26.50;79.90;;;;;;5037701;28;20109;-56
2023/06/16 10:11:55;;;;;;;4.63;3.72;;;26.80;79.20;;;;;;5051991;28;20483;-51
2023/06/16 10:14:25;;;;;;;6.60;4.22;;;27.10;78.50;;;;;;5049716;28;20041;-55
2023/06/16 10:16:54;;;;;;;5.03;4.10;;;27.00;79.50;;;;;;5049288;28;20102;-53
2023/06/16 10:19:23;;;;;;;6.63;3.67;;;27.20;79.40;;;;;;5045043;28;20116;-55
2023/06/16 10:21:53;;;;;;;4.80;3.55;;;27.40;76.90;;;;;;5040257;28;20072;-54
2023/06/16 10:24:20;;;;;;;4.35;3.95;;;27.40;77.80;;;;;;5036805;28;20103;-55
2023/06/16 10:26:47;;;;;;;5.20;3.80;;;27.10;77.20;;;;;;5050837;28;20079;-54
2023/06/16 10:29:16;;;;;;;4.32;3.92;;;26.70;77.20;;;;;;5048665;28;20045;-55
2023/06/16 10:31:49;;;;;;;4.30;3.90;;;26.60;76.90;;;;;;5023316;28;20130;-55
2023/06/16 10:34:23;;;;;;;5.63;3.65;;;26.90;76.10;;;;;;5044312;28;20402;-56
2023/06/16 10:36:51;;;;;;;5.60;4.00;;;26.90;76.00;;;;;;5050616;28;20120;-54
2023/06/16 10:39:17;;;;;;;4.03;3.60;;;27.10;77.00;;;;;;5050777;28;20374;-53
2023/06/16 10:41:51;;;;;;;4.50;4.10;;;27.20;76.80;;;;;;5049357;28;20048;-55
2023/06/16 10:44:30;;;;;;;5.30;3.88;;;27.40;77.00;;;;;;5047085;28;20036;-53
2023/06/16 10:47:07;;;;;;;4.35;3.95;;;27.20;76.40;;;;;;5045739;28;20037;-53
2023/06/16 10:49:42;;;;;;;4.40;3.97;;;27.00;76.50;;;;;;5047949;28;20437;-56
2023/06/16 10:52:08;;;;;;;4.13;3.63;;;27.30;76.80;;;;;;5051589;28;20083;-52
2023/06/16 10:54:37;;;;;;;4.47;4.00;;;27.60;77.60;;;;;;5086655;23;20121;-48
2023/06/16 10:57:07;;;;;;;5.22;4.13;;;27.50;76.50;;;;;;5019573;28;20057;-48
2023/06/16 10:59:51;;;;;;;4.13;3.80;;;27.30;77.40;;;;;;5028831;28;20041;-46
2023/06/16 11:02:20;;;;;;;4.63;4.05;;;27.20;77.60;;;;;;5024758;28;20034;-50
2023/06/16 11:05:07;;;;;;;3.50;3.20;;;27.10;77.10;;;;;;5024507;28;20045;-46
2023/06/16 11:08:05;;;;;;;5.57;3.85;;;27.30;74.20;;;;;;5018847;28;20049;-47
2023/06/16 11:11:05;;;;;;;5.53;3.70;;;26.80;74.00;;;;;;5027770;28;20060;-47
2023/06/16 11:13:33;;;;;;;4.65;3.50;;;26.60;74.80;;;;;;5035542;28;20052;-47
2023/06/16 11:16:00;;;;;;;3.50;2.97;;;26.50;74.30;;;;;;5021832;28;20064;-46
2023/06/16 11:18:27;;;;;;;3.97;3.50;;;26.60;71.70;;;;;;5049124;28;20045;-48
2023/06/16 11:21:00;;;;;;;3.85;3.47;;;26.90;73.30;;;;;;5028631;28;20050;-47
2023/06/16 11:23:26;;;;;;;4.40;3.30;;;27.00;74.50;;;;;;5035830;28;20133;-47
2023/06/16 11:25:53;;;;;;;4.47;2.90;;;27.40;74.70;;;;;;5032168;28;20128;-48
2023/06/16 11:28:20;;;;;;;3.72;3.40;;;27.10;71.60;;;;;;5033914;28;20043;-46
2023/06/16 11:30:49;;;;;;;4.80;3.75;;;27.50;74.30;;;;;;5005158;28;20384;-49
2023/06/16 11:33:19;;;;;;;4.93;3.80;;;27.40;74.80;;;;;;5034262;28;20045;-47
2023/06/16 11:35:45;;;;;;;5.82;3.80;;;27.30;71.80;;;;;;5034966;28;20056;-46
2023/06/16 11:38:11;;;;;;;4.65;3.53;;;27.20;70.80;;;;;;5034607;28;20041;-48
2023/06/16 11:40:37;;;;;;;9.75;3.22;;;27.30;70.40;;;;;;5030451;28;20075;-47
2023/06/16 11:43:07;;;;;;;3.53;3.22;;;27.30;71.70;;;;;;5026102;28;20084;-46
2023/06/16 11:45:36;;;;;;;4.40;3.33;;;26.70;71.70;;;;;;5023498;28;20042;-46
2023/06/16 11:48:03;;;;;;;4.18;2.95;;;26.90;71.80;;;;;;5013809;28;20936;-47
2023/06/16 11:50:29;;;;;;;;;;;27.20;73.50;;;;;;5025020;28;20053;-47
2023/06/16 11:52:55;;;;;;;4.70;3.43;;;27.40;72.80;;;;;;5020662;28;20370;-47
2023/06/16 11:55:21;;;;;;;5.07;3.40;;;27.40;70.20;;;;;;5030110;28;20048;-45
2023/06/16 11:57:47;;;;;;;3.50;3.20;;;27.40;70.70;;;;;;5027591;28;20094;-46
2023/06/16 12:00:14;;;;;;;3.53;3.17;;;27.10;70.20;;;;;;5041994;28;20033;-45
2023/06/16 12:02:42;;;;;;;3.53;2.75;;;27.30;70.00;;;;;;5027304;28;20041;-45
2023/06/16 12:05:12;;;;;;;5.20;2.75;;;27.60;69.80;;;;;;5031553;28;20487;-46
2023/06/16 12:07:38;;;;;;;3.95;3.47;;;27.80;70.10;;;;;;5031404;28;20171;-46
2023/06/16 12:10:05;;;;;;;3.60;3.25;;;27.80;69.60;;;;;;5046070;28;20045;-45
2023/06/16 12:12:31;;;;;;;4.00;3.00;;;28.10;70.40;;;;;;5053642;28;20044;-48
2023/06/16 12:14:59;;;;;;;13.03;3.50;;;28.30;69.10;;;;;;5044509;28;20124;-46
2023/06/16 12:17:25;;;;;;;4.32;3.20;;;28.40;66.90;;;;;;5053550;28;20041;-46
2023/06/16 12:19:52;;;;;;;4.15;3.28;;;28.50;64.70;;;;;;5045255;28;20116;-45
2023/06/16 12:22:17;;;;;;;3.13;2.83;;;28.50;65.50;;;;;;5050068;28;20041;-47
2023/06/16 12:24:43;;;;;;;4.05;2.75;;;28.50;65.20;;;;;;5031670;28;20402;-46
2023/06/16 12:27:20;;;;;;;4.43;3.03;;;28.70;66.70;;;;;;5051203;28;20132;-45
2023/06/16 12:29:46;;;;;;;3.80;2.67;;;28.80;65.90;;;;;;5019399;28;20045;-46
2023/06/16 12:32:11;;;;;;;4.47;3.00;;;29.00;66.90;;;;;;5047180;28;20041;-46
2023/06/16 12:34:37;;;;;;;4.97;3.10;;;29.00;65.00;;;;;;5047154;28;20382;-46
2023/06/16 12:37:10;;;;;;;4.50;2.72;;;28.60;64.30;;;;;;5040534;28;20049;-48
2023/06/16 12:39:37;;;;;;;5.22;2.85;;;28.60;64.60;;;;;;5029008;28;20478;-46
2023/06/16 12:42:05;;;;;;;4.30;2.90;;;28.40;64.80;;;;;;5033733;28;20124;-46
2023/06/16 12:44:41;;;;;;;2.85;2.50;;;28.40;64.10;;;;;;5003584;28;20068;-46
2023/06/16 12:47:07;;;;;;;4.35;2.80;;;27.50;63.50;;;;;;5038494;28;20041;-45
2023/06/16 12:49:32;;;;;;;4.28;3.00;;;27.80;64.50;;;;;;5052660;28;20037;-46